Time;durP1;ratioP1;P1;durP2;ratioP2;P2;SDS_P1;SDS_P2;PMS_P1;PMS_P2;Temp;Humidity;BMP_temperature;BMP_pressure;BME280_temperature;BME280_humidity;BME280_pressure;Samples;Min_cycle;Max_cycle;Signal;HPM_P1;HPM_P2
2022/06/01 00:02:00;;;;;;;3.40;2.17;;;;;;;16.28;65.67;98928.66;5085855;28;20064;-74
2022/06/01 00:04:28;;;;;;;4.15;2.20;;;;;;;16.17;65.70;98922.53;5085952;28;20074;-74
2022/06/01 00:06:56;;;;;;;3.63;2.40;;;;;;;16.22;65.59;98921.16;5086066;28;20370;-74
2022/06/01 00:09:24;;;;;;;3.75;2.17;;;;;;;15.75;66.15;98845.00;5085648;28;20052;-74
2022/06/01 00:11:51;;;;;;;2.90;2.13;;;;;;;16.14;65.51;98896.06;5085965;28;20083;-74
2022/06/01 00:14:18;;;;;;;3.88;2.08;;;;;;;16.16;66.15;98921.69;5085908;28;20106;-74
2022/06/01 00:16:46;;;;;;;3.47;2.05;;;;;;;16.19;66.00;98913.41;5085820;28;20186;-74
2022/06/01 00:19:14;;;;;;;3.75;2.25;;;;;;;16.27;66.48;98905.56;5085822;28;20127;-73
2022/06/01 00:24:23;;;;;;;3.45;2.50;;;;;;;16.31;66.41;98931.06;5084735;28;20098;-73
2022/06/01 00:26:51;;;;;;;3.85;2.55;;;;;;;16.31;66.20;98939.09;5085465;28;20060;-74
2022/06/01 00:29:18;;;;;;;3.00;2.40;;;;;;;16.28;66.73;98933.16;5085362;28;20052;-73
2022/06/01 00:31:45;;;;;;;4.35;2.15;;;;;;;16.27;66.66;98939.50;5085480;28;20057;-74
2022/06/01 00:34:14;;;;;;;3.17;2.13;;;;;;;16.24;66.52;98937.06;5085418;28;20056;-74
2022/06/01 00:36:41;;;;;;;4.63;2.25;;;;;;;16.22;66.29;98934.53;5085532;28;20078;-73
2022/06/01 00:39:09;;;;;;;4.68;2.25;;;;;;;16.22;66.41;98939.03;5085632;28;20110;-74
2022/06/01 00:41:36;;;;;;;5.50;2.33;;;;;;;16.21;66.34;98943.53;5085504;28;20316;-74
2022/06/01 00:44:04;;;;;;;3.33;2.20;;;;;;;15.14;66.77;98763.81;5085132;28;20114;-74
2022/06/01 00:46:31;;;;;;;3.55;2.22;;;;;;;16.19;67.03;98945.50;5084549;28;20071;-74
2022/06/01 00:49:14;;;;;;;3.35;2.30;;;;;;;13.73;68.36;98572.69;5085374;28;20209;-74
2022/06/01 00:51:44;;;;;;;4.00;2.50;;;;;;;15.86;67.45;98906.41;5085414;28;20064;-74
2022/06/01 00:54:12;;;;;;;4.18;2.20;;;;;;;16.12;66.78;98938.13;5085282;28;20051;-74
2022/06/01 00:56:43;;;;;;;5.13;2.60;;;;;;;16.10;67.16;98934.72;5085080;28;20216;-74
2022/06/01 00:59:17;;;;;;;2.80;2.05;;;;;;;15.04;67.18;98849.97;5085475;28;20056;-74
2022/06/01 01:01:44;;;;;;;3.50;2.40;;;;;;;16.11;66.64;98942.63;5085405;28;20209;-74
2022/06/01 01:04:13;;;;;;;2.92;2.28;;;;;;;16.06;67.30;98946.66;5084703;28;20455;-73
2022/06/01 01:06:41;;;;;;;3.92;1.98;;;;;;;16.00;66.99;98945.34;5085173;28;20075;-74
2022/06/01 01:09:10;;;;;;;3.10;1.90;;;;;;;15.97;67.49;98942.94;5085135;28;20056;-74
2022/06/01 01:11:46;;;;;;;3.05;2.17;;;;;;;15.92;68.41;98951.31;5085267;28;20127;-73
2022/06/01 01:14:15;;;;;;;4.65;1.90;;;;;;;15.48;67.07;98885.53;5085202;28;20056;-73
2022/06/01 01:16:43;;;;;;;3.75;1.80;;;;;;;15.91;67.46;98959.47;5085268;28;20186;-74
2022/06/01 01:19:20;;;;;;;2.40;1.60;;;;;;;15.89;67.93;98954.25;5085194;28;20056;-72
2022/06/01 01:21:56;;;;;;;2.40;1.80;;;;;;;15.87;67.86;98956.22;5085185;28;20052;-72
2022/06/01 01:24:31;;;;;;;2.45;1.80;;;;;;;15.84;67.80;98958.28;5084865;28;20351;-73
2022/06/01 01:27:00;;;;;;;3.25;2.00;;;;;;;15.78;66.91;98950.78;5085114;28;20056;-72
2022/06/01 01:29:33;;;;;;;3.10;1.90;;;;;;;15.78;67.66;98948.97;5084715;28;20197;-74
2022/06/01 01:32:01;;;;;;;3.45;1.95;;;;;;;15.80;66.87;98948.84;5084830;28;20060;-74
2022/06/01 01:34:29;;;;;;;3.75;2.00;;;;;;;15.82;66.98;98936.19;5083744;28;20202;-73
2022/06/01 01:37:00;;;;;;;3.83;2.45;;;;;;;15.81;67.37;98931.81;5084644;28;20064;-73
2022/06/01 01:39:31;;;;;;;2.75;1.92;;;;;;;15.78;67.46;98945.44;5084581;28;20052;-74
2022/06/01 01:42:00;;;;;;;2.55;1.75;;;;;;;15.70;67.73;98933.56;5084932;28;20059;-73
2022/06/01 01:44:33;;;;;;;3.67;1.88;;;;;;;15.46;67.92;98887.47;5084575;28;20057;-74
2022/06/01 01:47:01;;;;;;;3.50;1.90;;;;;;;15.70;68.04;98924.69;5084664;28;20225;-74
2022/06/01 01:49:31;;;;;;;2.75;1.80;;;;;;;15.71;67.50;98931.75;5084758;28;20052;-74
2022/06/01 01:52:02;;;;;;;2.45;1.70;;;;;;;15.75;67.48;98924.31;5084903;28;20048;-73
2022/06/01 01:54:39;;;;;;;3.20;2.05;;;;;;;14.98;67.87;98802.44;5084879;28;20307;-74
2022/06/01 01:57:18;;;;;;;3.05;1.95;;;;;;;15.68;68.17;98934.66;5084850;28;20071;-73
2022/06/01 01:59:59;;;;;;;3.58;2.17;;;;;;;14.70;68.39;98769.19;5084500;28;20052;-74
2022/06/01 02:02:35;;;;;;;3.80;1.90;;;;;;;15.65;68.39;98930.44;5084874;28;20306;-74
2022/06/01 02:07:59;;;;;;;3.38;2.55;;;;;;;15.65;68.21;98922.41;5084641;28;20047;-74
2022/06/01 02:13:17;;;;;;;2.90;2.17;;;;;;;14.57;68.67;98748.91;5084840;28;20036;-74
2022/06/01 02:15:48;;;;;;;2.90;1.95;;;;;;;15.66;67.70;98915.25;5084988;28;20075;-74
2022/06/01 02:18:20;;;;;;;2.45;2.00;;;;;;;15.66;68.22;98916.09;5088223;28;20067;-74
2022/06/01 02:20:52;;;;;;;2.60;1.80;;;;;;;15.62;68.13;98917.28;5088216;28;20052;-74
2022/06/01 02:23:20;;;;;;;3.33;1.80;;;;;;;15.63;67.58;98921.66;5087831;28;20153;-74
2022/06/01 02:25:50;;;;;;;2.72;1.80;;;;;;;15.59;68.42;98912.19;5087705;28;20063;-74
2022/06/01 02:28:20;;;;;;;2.95;2.13;;;;;;;15.60;67.47;98927.25;5088097;28;20101;-74
2022/06/01 02:30:49;;;;;;;4.70;2.88;;;;;;;15.59;67.28;98928.22;5087913;28;20056;-74
2022/06/01 02:33:22;;;;;;;3.38;2.15;;;;;;;15.58;67.84;98926.53;5087454;28;20057;-74
2022/06/01 02:35:53;;;;;;;3.05;2.05;;;;;;;15.54;67.64;98927.75;5087955;28;20312;-74
2022/06/01 02:38:30;;;;;;;2.90;2.10;;;;;;;15.51;68.86;98921.81;5087919;28;20053;-74
2022/06/01 02:41:01;;;;;;;3.90;2.40;;;;;;;15.44;68.57;98953.53;5086787;28;20064;-74
2022/06/01 02:43:30;;;;;;;3.28;2.13;;;;;;;15.45;68.20;98935.69;5087771;28;20044;-75
2022/06/01 02:45:57;;;;;;;2.75;2.28;;;;;;;15.39;68.14;98935.19;5087923;28;20056;-74
2022/06/01 02:48:25;;;;;;;3.47;2.20;;;;;;;15.03;68.15;98880.31;5087452;28;20212;-74
2022/06/01 02:50:53;;;;;;;2.70;2.10;;;;;;;15.35;67.93;98930.25;5087538;28;20067;-74
2022/06/01 02:53:20;;;;;;;2.75;2.20;;;;;;;15.17;68.83;98883.69;5087594;28;20067;-74
2022/06/01 02:55:48;;;;;;;3.95;2.25;;;;;;;15.37;68.39;98931.81;5087254;28;20052;-74
2022/06/01 02:58:16;;;;;;;2.47;1.95;;;;;;;15.37;68.37;98938.97;5086527;28;20044;-74
2022/06/01 03:00:44;;;;;;;2.90;2.30;;;;;;;15.33;69.02;98932.19;5087205;28;20374;-74
2022/06/01 03:03:12;;;;;;;2.83;1.98;;;;;;;15.30;68.71;98943.97;5087655;28;20110;-74
2022/06/01 03:05:41;;;;;;;3.80;2.40;;;;;;;15.27;68.50;98944.22;5087290;28;20117;-74
2022/06/01 03:08:10;;;;;;;2.40;1.83;;;;;;;15.29;68.25;98947.59;5087290;28;20052;-74
2022/06/01 03:10:37;;;;;;;3.67;2.30;;;;;;;15.32;68.01;98950.03;5087117;28;20053;-74
2022/06/01 03:13:04;;;;;;;3.10;2.00;;;;;;;15.30;67.88;98951.97;5087110;28;20114;-74
2022/06/01 03:15:32;;;;;;;2.10;1.52;;;;;;;15.28;67.79;98953.06;5086014;28;20244;-74
2022/06/01 03:18:01;;;;;;;3.13;2.25;;;;;;;14.98;68.61;98905.66;5087069;28;20102;-74
2022/06/01 03:20:29;;;;;;;2.95;2.00;;;;;;;15.24;68.31;98954.28;5087034;28;20300;-74
2022/06/01 03:22:57;;;;;;;3.03;2.03;;;;;;;15.24;68.31;98951.63;5086601;28;20109;-74
2022/06/01 03:25:25;;;;;;;2.80;2.10;;;;;;;15.30;68.83;98951.13;5086883;28;20258;-74
2022/06/01 03:27:54;;;;;;;3.33;2.25;;;;;;;15.34;68.51;98948.06;5086100;28;20346;-75
2022/06/01 03:30:22;;;;;;;3.15;2.20;;;;;;;15.39;68.07;98953.91;5086742;28;20060;-74
2022/06/01 03:32:49;;;;;;;5.15;2.20;;;;;;;15.39;68.02;98963.72;5086228;28;20110;-74
2022/06/01 03:35:21;;;;;;;3.03;1.90;;;;;;;15.30;69.34;98951.13;5086770;28;20106;-74
2022/06/01 03:37:49;;;;;;;2.45;1.65;;;;;;;15.33;68.14;98957.06;5086735;28;20052;-74
2022/06/01 03:40:19;;;;;;;3.55;2.10;;;;;;;15.31;68.61;98959.00;5086489;28;20052;-74
2022/06/01 03:42:46;;;;;;;3.40;2.00;;;;;;;15.27;68.89;98940.69;5086679;28;20130;-74
2022/06/01 03:47:59;;;;;;;5.03;2.30;;;;;;;15.19;68.69;98946.66;5086572;28;20093;-74
2022/06/01 03:50:29;;;;;;;3.42;2.20;;;;;;;15.24;69.04;98952.47;5086312;28;20052;-74
2022/06/01 03:52:56;;;;;;;3.20;2.25;;;;;;;15.28;68.75;98951.25;5086020;28;20064;-74
2022/06/01 03:55:24;;;;;;;3.08;2.20;;;;;;;14.76;68.66;98866.53;5086041;28;20098;-74
2022/06/01 03:57:51;;;;;;;3.20;1.73;;;;;;;15.28;68.77;98953.06;5085978;28;20057;-74
2022/06/01 04:00:23;;;;;;;3.03;1.77;;;;;;;15.30;68.31;98951.13;5086207;28;20110;-74
2022/06/01 04:02:51;;;;;;;2.35;1.70;;;;;;;15.30;68.45;98951.13;5085906;28;20114;-75
2022/06/01 04:05:19;;;;;;;2.88;2.00;;;;;;;15.32;68.21;98951.84;5086036;28;20082;-74
2022/06/01 04:07:48;;;;;;;2.75;1.65;;;;;;;15.32;67.92;98950.03;5086058;28;20239;-74
2022/06/01 04:10:15;;;;;;;2.90;1.77;;;;;;;15.34;67.88;98952.56;5085625;28;20064;-74
2022/06/01 04:12:43;;;;;;;5.53;2.38;;;;;;;13.53;67.65;98655.09;5085625;28;20048;-74
2022/06/01 04:15:10;;;;;;;2.30;1.52;;;;;;;15.40;67.44;98952.91;5085903;28;20079;-75
2022/06/01 04:17:38;;;;;;;3.30;1.73;;;;;;;15.39;67.85;98950.38;5084828;28;20102;-74
2022/06/01 04:20:07;;;;;;;2.72;1.80;;;;;;;15.42;67.66;98954.63;5085803;28;20082;-75
2022/06/01 04:22:36;;;;;;;2.95;2.03;;;;;;;15.40;67.70;98954.75;5085998;28;20052;-74
2022/06/01 04:25:05;;;;;;;4.40;2.00;;;;;;;15.40;68.07;98955.59;5085497;28;20326;-74
2022/06/01 04:27:33;;;;;;;3.38;2.10;;;;;;;15.47;67.51;98958.59;5085667;28;20118;-74
2022/06/01 04:30:00;;;;;;;4.03;1.85;;;;;;;15.43;67.46;98949.16;5085520;28;20052;-74
2022/06/01 04:32:31;;;;;;;3.58;2.28;;;;;;;15.51;67.29;98961.88;5085552;28;20064;-74
2022/06/01 04:34:59;;;;;;;4.60;3.30;;;;;;;15.52;67.11;98967.09;5085767;28;20056;-74
2022/06/01 04:37:26;;;;;;;6.55;3.80;;;;;;;15.20;66.67;98899.44;5085391;28;20176;-75
2022/06/01 04:39:53;;;;;;;3.78;2.67;;;;;;;15.54;66.77;98964.31;5084806;28;20060;-74
2022/06/01 04:42:23;;;;;;;3.35;2.40;;;;;;;15.55;66.83;98966.84;5085338;28;20051;-74
2022/06/01 04:44:50;;;;;;;6.07;3.47;;;;;;;15.56;66.45;98968.53;5085308;28;20064;-74
2022/06/01 04:47:19;;;;;;;4.20;2.60;;;;;;;15.64;66.58;98973.25;5085806;28;20056;-74
2022/06/01 04:49:46;;;;;;;2.78;1.95;;;;;;;15.68;66.06;98966.72;5085143;28;20060;-74
2022/06/01 04:52:14;;;;;;;2.88;1.80;;;;;;;15.66;66.45;98969.53;5085406;28;20053;-74
2022/06/01 04:54:42;;;;;;;3.00;2.30;;;;;;;15.71;66.30;98974.47;5085433;28;20366;-75
2022/06/01 04:57:09;;;;;;;3.22;1.98;;;;;;;15.72;65.88;98968.16;5085406;28;20064;-74
2022/06/01 04:59:38;;;;;;;5.30;2.17;;;;;;;15.48;65.46;98928.25;5085407;28;20056;-75
2022/06/01 05:02:06;;;;;;;3.83;2.60;;;;;;;15.80;65.52;98964.88;5085677;28;20078;-75
2022/06/01 05:04:33;;;;;;;4.32;3.05;;;;;;;15.83;64.96;98969.94;5085260;28;20060;-75
2022/06/01 05:07:02;;;;;;;3.40;2.33;;;;;;;15.84;64.53;98967.16;5085418;28;20057;-76
2022/06/01 05:09:29;;;;;;;2.90;1.83;;;;;;;15.62;64.25;98940.47;5085148;28;20110;-75
2022/06/01 05:11:57;;;;;;;2.88;1.90;;;;;;;15.62;64.22;98943.16;5085018;28;20044;-75
2022/06/01 05:14:24;;;;;;;3.08;1.38;;;;;;;15.89;64.30;98986.31;5085191;28;20113;-75
2022/06/01 05:16:58;;;;;;;3.15;1.70;;;;;;;15.91;63.82;98983.53;5084803;28;20151;-75
2022/06/01 05:19:25;;;;;;;2.30;1.55;;;;;;;15.43;63.90;98900.25;5085168;28;20082;-75
2022/06/01 05:21:53;;;;;;;1.85;1.30;;;;;;;15.94;64.09;98988.63;5084955;28;20060;-75
2022/06/01 05:24:20;;;;;;;2.38;1.50;;;;;;;15.96;63.69;99018.72;5084947;28;20056;-75
2022/06/01 05:26:47;;;;;;;3.47;1.90;;;;;;;16.00;63.84;98988.94;5084843;28;20098;-75
2022/06/01 05:29:15;;;;;;;3.47;1.85;;;;;;;16.00;63.90;98996.97;5084813;28;20113;-75
2022/06/01 05:31:44;;;;;;;2.15;1.38;;;;;;;16.04;63.66;98989.53;5084960;28;20086;-75
2022/06/01 05:34:13;;;;;;;3.47;1.80;;;;;;;16.02;63.62;99003.03;5084965;28;20056;-75
2022/06/01 05:36:40;;;;;;;4.03;1.80;;;;;;;16.05;63.33;99001.94;5086197;28;20057;-75
2022/06/01 05:39:08;;;;;;;5.45;1.85;;;;;;;16.10;63.58;99010.41;5089029;28;20063;-75
2022/06/01 05:41:35;;;;;;;2.10;1.40;;;;;;;16.15;63.40;99015.38;5089383;28;20078;-75
2022/06/01 05:44:03;;;;;;;2.85;1.77;;;;;;;16.21;63.04;99020.22;5090783;28;20362;-75
2022/06/01 05:46:30;;;;;;;2.63;1.80;;;;;;;16.23;62.76;99020.94;5085696;28;20052;-75
2022/06/01 05:48:58;;;;;;;2.10;1.58;;;;;;;15.98;62.74;98974.88;5085723;28;20083;-75
2022/06/01 05:51:26;;;;;;;6.28;2.08;;;;;;;16.29;62.52;99021.28;5086956;28;20086;-75
2022/06/01 05:53:54;;;;;;;2.75;1.63;;;;;;;14.76;62.92;98759.81;5088476;28;20057;-75
2022/06/01 05:56:21;;;;;;;2.47;1.50;;;;;;;16.38;62.68;99025.00;5088651;28;20102;-75
2022/06/01 05:58:50;;;;;;;2.40;1.55;;;;;;;16.41;62.31;99023.91;5088693;28;20057;-75
2022/06/01 06:01:21;;;;;;;2.40;1.60;;;;;;;16.43;62.53;99027.28;5088553;28;20076;-75
2022/06/01 06:03:48;;;;;;;4.80;2.03;;;;;;;16.47;62.13;99034.91;5088429;28;20056;-75
2022/06/01 06:06:20;;;;;;;3.15;1.35;;;;;;;16.52;61.97;99224.47;5088410;28;20064;-75
2022/06/01 06:08:51;;;;;;;7.30;2.53;;;;;;;16.54;62.15;99037.94;5088551;28;20056;-75
2022/06/01 06:11:19;;;;;;;2.30;1.50;;;;;;;16.57;62.05;99046.53;5088426;28;20049;-75
2022/06/01 06:13:49;;;;;;;2.15;1.42;;;;;;;16.62;62.09;99043.47;5088014;28;20251;-75
2022/06/01 06:16:18;;;;;;;2.45;1.60;;;;;;;16.68;61.67;99037.63;5088532;28;20064;-75
2022/06/01 06:18:45;;;;;;;2.05;1.50;;;;;;;16.70;61.65;99043.72;5088357;28;20106;-75
2022/06/01 06:21:13;;;;;;;2.92;1.60;;;;;;;15.53;61.47;98845.09;5088725;28;20056;-75
2022/06/01 06:23:41;;;;;;;3.72;1.63;;;;;;;16.71;61.41;99026.69;5088960;28;20057;-75
2022/06/01 06:26:10;;;;;;;2.90;1.67;;;;;;;16.09;61.11;98944.56;5088484;28;20301;-75
2022/06/01 06:28:38;;;;;;;4.15;1.83;;;;;;;16.85;61.24;99047.75;5087942;28;20386;-75
2022/06/01 06:31:06;;;;;;;3.30;2.05;;;;;;;16.73;61.31;99030.06;5086882;28;20371;-75
2022/06/01 06:33:33;;;;;;;2.38;1.83;;;;;;;16.97;61.62;99045.84;5087222;28;20051;-75
2022/06/01 06:36:02;;;;;;;2.92;1.73;;;;;;;17.04;61.13;99054.19;5087531;28;20060;-75
2022/06/01 06:38:32;;;;;;;2.95;1.90;;;;;;;17.08;60.97;99061.81;5088001;28;20102;-75
2022/06/01 06:41:01;;;;;;;4.35;1.80;;;;;;;17.08;60.63;99051.13;5087659;28;20126;-75
2022/06/01 06:43:31;;;;;;;4.63;2.38;;;;;;;16.45;60.76;98934.41;5087499;28;20048;-75
2022/06/01 06:46:00;;;;;;;2.78;1.83;;;;;;;15.80;60.37;98841.94;5087760;28;20052;-75
2022/06/01 06:48:30;;;;;;;4.53;1.88;;;;;;;17.20;60.12;99052.75;5087907;28;20048;-74
2022/06/01 06:50:59;;;;;;;3.95;2.38;;;;;;;17.25;60.01;99060.41;5087291;28;20122;-75
2022/06/01 06:53:27;;;;;;;2.70;1.70;;;;;;;17.30;59.91;99056.34;5087238;28;20270;-75
2022/06/01 06:55:56;;;;;;;4.43;1.90;;;;;;;17.38;59.60;99049.44;5087364;28;20052;-75
2022/06/01 06:58:24;;;;;;;3.75;1.70;;;;;;;17.43;59.30;99065.97;5086347;28;20212;-75
2022/06/01 07:00:53;;;;;;;3.08;1.88;;;;;;;17.56;59.60;99042.47;5087063;28;20058;-75
2022/06/01 07:03:21;;;;;;;3.50;2.35;;;;;;;17.73;59.15;99057.94;5085983;28;20053;-75
2022/06/01 07:08:33;;;;;;;;;;;;;;;18.06;58.26;99074.66;5087621;28;20086;-75
2022/06/01 07:11:01;;;;;;;3.67;1.85;;;;;;;18.05;57.93;99038.94;5087515;28;19916;-75
2022/06/01 07:13:28;;;;;;;3.90;1.83;;;;;;;18.37;57.37;99089.66;5087219;28;20102;-75
2022/06/01 07:16:05;;;;;;;2.60;1.60;;;;;;;18.48;56.83;99076.09;5087518;28;20040;-75
2022/06/01 07:18:33;;;;;;;3.25;1.67;;;;;;;18.66;56.66;99068.19;5087202;28;20056;-75
2022/06/01 07:21:00;;;;;;;2.60;1.70;;;;;;;18.82;57.09;99068.47;5087059;28;20056;-75
2022/06/01 07:23:28;;;;;;;2.47;1.73;;;;;;;19.10;56.57;99077.44;5087105;28;20190;-74
2022/06/01 07:25:55;;;;;;;2.30;1.60;;;;;;;19.20;56.07;99082.78;5087106;28;20057;-75
2022/06/01 07:28:22;;;;;;;2.92;1.85;;;;;;;19.29;55.42;99076.53;5086647;28;20060;-75
2022/06/01 07:30:56;;;;;;;3.25;2.03;;;;;;;19.46;54.87;99072.28;5086764;28;20109;-75
2022/06/01 07:33:26;;;;;;;2.50;1.70;;;;;;;18.53;54.82;98893.22;5086462;28;20053;-75
2022/06/01 07:35:54;;;;;;;3.78;2.40;;;;;;;19.84;54.72;99061.38;5086954;28;20052;-75
2022/06/01 07:43:58;;;;;;;3.67;2.22;;;;;;;20.51;53.45;99059.22;5086814;28;20307;-76
2022/06/01 07:46:26;;;;;;;3.97;2.10;;;;;;;20.73;52.82;99068.66;5086593;28;20056;-75
2022/06/01 07:48:55;;;;;;;4.07;1.90;;;;;;;20.70;51.56;99061.75;5085680;28;20064;-75
2022/06/01 07:51:22;;;;;;;5.25;2.53;;;;;;;20.71;52.69;99062.59;5086556;28;20057;-76
2022/06/01 07:53:49;;;;;;;3.00;2.00;;;;;;;20.76;52.27;99050.34;5086242;28;20110;-76
2022/06/01 07:56:16;;;;;;;2.80;1.80;;;;;;;20.70;52.11;99040.19;5086168;28;20066;-76
2022/06/01 07:58:44;;;;;;;2.65;1.67;;;;;;;20.89;51.91;99047.22;5086339;28;20114;-76
2022/06/01 08:01:11;;;;;;;4.95;3.17;;;;;;;21.08;51.47;99075.84;5086042;28;20052;-76
2022/06/01 08:03:38;;;;;;;4.75;2.28;;;;;;;20.85;51.51;99021.63;5086200;28;20316;-76
2022/06/01 08:06:07;;;;;;;3.42;2.05;;;;;;;20.95;50.86;99061.91;5085878;28;20215;-73
2022/06/01 08:08:35;;;;;;;4.57;1.80;;;;;;;20.94;50.23;99069.16;5085842;28;20064;-73
2022/06/01 08:11:02;;;;;;;3.58;1.75;;;;;;;20.94;50.56;99071.84;5086175;28;20255;-76
2022/06/01 08:13:28;;;;;;;2.67;1.70;;;;;;;18.89;50.31;98736.66;5085671;28;20094;-76
2022/06/01 08:15:55;;;;;;;5.10;1.63;;;;;;;20.97;49.61;99065.31;5085832;28;20064;-76
2022/06/01 08:18:25;;;;;;;2.85;1.50;;;;;;;21.03;50.22;99064.69;5085907;28;20063;-76
2022/06/01 08:20:53;;;;;;;3.42;1.70;;;;;;;20.79;50.83;99006.09;5085527;28;20057;-76
2022/06/01 08:23:25;;;;;;;4.70;1.90;;;;;;;21.46;49.98;99061.09;5085603;28;20056;-76
2022/06/01 08:25:53;;;;;;;3.50;2.10;;;;;;;21.58;49.93;99026.59;5085583;28;20056;-76
2022/06/01 08:28:20;;;;;;;2.80;1.67;;;;;;;21.96;49.15;99071.09;5085339;28;20056;-75
2022/06/01 08:30:48;;;;;;;4.35;2.55;;;;;;;21.94;48.63;99065.03;5085678;28;20117;-76
2022/06/01 08:33:16;;;;;;;3.58;2.05;;;;;;;21.94;48.24;99065.88;5085231;28;20332;-76
2022/06/01 08:35:45;;;;;;;2.90;1.90;;;;;;;21.83;47.56;99063.47;5085334;28;20064;-76
2022/06/01 08:38:13;;;;;;;4.25;1.77;;;;;;;21.72;47.96;99066.44;5085315;28;20060;-76
2022/06/01 08:40:52;;;;;;;5.30;1.88;;;;;;;21.76;45.75;99070.50;5084933;28;20082;-76
2022/06/01 08:43:24;;;;;;;5.25;2.00;;;;;;;21.22;47.01;98998.97;5084644;28;20052;-76
2022/06/01 08:45:59;;;;;;;8.48;2.38;;;;;;;21.67;46.79;99076.84;5085720;28;20036;-76
2022/06/01 08:48:33;;;;;;;2.20;1.40;;;;;;;21.74;46.85;99075.19;5085537;28;20300;-75
2022/06/01 08:51:00;;;;;;;;;;;;;;;21.70;45.35;99077.38;5085935;28;20117;-76
2022/06/01 08:53:31;;;;;;;2.75;1.88;;;;;;;21.76;47.82;99078.59;5084902;28;19924;-76
2022/06/01 08:56:09;;;;;;;3.70;2.10;;;;;;;21.37;47.07;99025.16;5084313;28;20105;-76
2022/06/01 08:58:43;;;;;;;3.90;1.85;;;;;;;21.87;46.14;99037.00;5085378;28;20118;-76
2022/06/01 09:01:18;;;;;;;3.38;2.00;;;;;;;22.13;45.67;99072.00;5085378;28;20095;-75
2022/06/01 09:03:52;;;;;;;2.97;1.88;;;;;;;22.22;45.39;99069.16;5084962;28;20117;-75
2022/06/01 09:06:26;;;;;;;2.83;1.70;;;;;;;22.57;46.12;99068.06;5085352;28;20052;-76
2022/06/01 09:08:59;;;;;;;3.20;2.20;;;;;;;22.61;45.07;99014.56;5085270;28;20347;-76
2022/06/01 09:11:33;;;;;;;2.55;1.63;;;;;;;23.11;44.17;99057.56;5085491;28;20228;-76
2022/06/01 09:14:06;;;;;;;5.05;2.10;;;;;;;23.35;43.50;99076.47;5085169;28;20052;-75
2022/06/01 09:16:37;;;;;;;2.92;1.67;;;;;;;23.35;43.80;99079.19;5083837;28;20228;-75
2022/06/01 09:19:06;;;;;;;4.18;1.73;;;;;;;23.36;44.94;99082.72;5085035;28;20056;-75
2022/06/01 09:24:36;;;;;;;3.38;1.80;;;;;;;23.39;44.21;99087.78;5063408;28;20045;-76
2022/06/01 09:27:07;;;;;;;2.28;1.50;;;;;;;23.09;43.74;99050.66;5066069;28;20065;-75
2022/06/01 09:29:43;;;;;;;5.15;1.83;;;;;;;22.35;44.23;98955.28;5077403;28;20102;-75
2022/06/01 09:32:28;;;;;;;2.53;1.77;;;;;;;23.16;42.67;99084.94;5089172;28;20060;-75
2022/06/01 09:35:06;;;;;;;4.85;1.85;;;;;;;23.40;42.83;99083.22;5088656;28;20049;-76
2022/06/01 09:37:36;;;;;;;3.67;1.85;;;;;;;23.45;44.14;99086.25;5089009;28;20052;-76
2022/06/01 09:40:20;;;;;;;3.53;1.95;;;;;;;23.62;44.06;99077.06;5089004;28;20040;-76
2022/06/01 09:42:51;;;;;;;2.70;1.75;;;;;;;23.65;42.95;99076.72;5088695;28;20053;-75
2022/06/01 09:45:24;;;;;;;4.45;2.30;;;;;;;23.94;41.67;99074.22;5088791;28;20068;-76
2022/06/01 09:47:54;;;;;;;2.65;1.92;;;;;;;23.91;42.51;99023.16;5088738;28;20083;-76
2022/06/01 09:50:28;;;;;;;3.22;2.08;;;;;;;24.10;41.35;99077.91;5088719;28;20312;-76
2022/06/01 09:52:59;;;;;;;3.60;1.60;;;;;;;23.18;41.96;98945.03;5088305;28;20098;-76
2022/06/01 09:55:29;;;;;;;3.88;1.70;;;;;;;24.17;42.45;99085.13;5088556;28;20057;-76
2022/06/01 09:58:05;;;;;;;4.57;1.90;;;;;;;24.15;40.08;99081.75;5088493;28;20102;-76
2022/06/01 10:06:25;;;;;;;3.38;2.08;;;;;;;24.44;39.79;99069.41;5088372;28;20063;-76
2022/06/01 10:09:02;;;;;;;4.10;1.67;;;;;;;24.41;40.14;99065.19;5087322;28;20271;-76
2022/06/01 10:11:33;;;;;;;2.53;1.52;;;;;;;24.28;40.80;99064.94;5088050;28;20057;-76
2022/06/01 10:14:22;;;;;;;4.57;1.70;;;;;;;24.28;39.52;99067.63;5088026;28;20275;-76
2022/06/01 10:17:06;;;;;;;4.50;1.80;;;;;;;24.41;38.94;99065.19;5087620;28;20052;-76
2022/06/01 10:19:37;;;;;;;2.47;1.70;;;;;;;24.55;40.31;99061.69;5087188;28;20362;-76
2022/06/01 10:22:11;;;;;;;4.22;2.25;;;;;;;22.84;39.21;98896.69;5088015;28;20102;-76
2022/06/01 10:24:44;;;;;;;4.43;2.60;;;;;;;24.49;40.04;99057.00;5087794;28;20122;-76
2022/06/01 10:27:12;;;;;;;3.85;1.80;;;;;;;23.83;41.18;98908.72;5088044;28;20056;-76
2022/06/01 10:29:45;;;;;;;3.88;2.15;;;;;;;24.52;39.27;99051.22;5087942;28;20048;-76
2022/06/01 10:32:19;;;;;;;3.33;1.50;;;;;;;24.51;40.88;99054.09;5087899;28;20324;-76
2022/06/01 10:34:53;;;;;;;2.08;1.65;;;;;;;24.50;38.92;99025.34;5087951;28;20102;-76
2022/06/01 10:37:32;;;;;;;;;;;;;;;24.82;37.73;99062.19;5088148;28;20056;-74
2022/06/01 10:40:05;;;;;;;3.13;1.70;;;;;;;24.67;39.15;99067.56;5086537;28;19916;-76
2022/06/01 10:45:27;;;;;;;2.58;1.60;;;;;;;24.39;39.12;99052.84;5087185;28;20334;-76
2022/06/01 10:48:02;;;;;;;2.97;1.55;;;;;;;24.22;38.92;99060.22;5086330;28;20052;-76
2022/06/01 10:50:36;;;;;;;2.80;1.52;;;;;;;23.40;39.66;98908.28;5087832;28;20362;-76
2022/06/01 10:53:13;;;;;;;2.53;1.40;;;;;;;23.74;38.86;98951.22;5086647;28;20053;-76
2022/06/01 10:55:43;;;;;;;2.22;1.42;;;;;;;24.18;39.67;99021.84;5087247;28;20382;-76
2022/06/01 10:58:18;;;;;;;4.78;1.73;;;;;;;23.65;38.50;98922.53;5087195;28;20350;-76
2022/06/01 11:00:55;;;;;;;2.50;1.60;;;;;;;24.34;38.11;99058.78;5087226;28;20208;-76
2022/06/01 11:03:37;;;;;;;2.20;1.58;;;;;;;23.60;37.60;98947.41;5087021;28;20082;-76
2022/06/01 11:06:17;;;;;;;4.00;1.63;;;;;;;24.31;37.98;99043.75;5086907;28;20060;-76
2022/06/01 11:08:55;;;;;;;3.38;1.77;;;;;;;24.63;37.48;99029.13;5087034;28;20110;-75
2022/06/01 11:11:35;;;;;;;2.80;1.70;;;;;;;24.83;37.26;99032.19;5086812;28;20052;-75
2022/06/01 11:14:27;;;;;;;2.70;1.63;;;;;;;25.06;35.72;99034.88;5085958;28;20362;-74
2022/06/01 11:16:59;;;;;;;3.33;1.90;;;;;;;25.15;36.70;99035.63;5087091;28;20060;-75
2022/06/01 11:19:39;;;;;;;2.50;1.90;;;;;;;25.05;36.18;99022.34;5085875;28;20308;-75
2022/06/01 11:22:22;;;;;;;2.47;1.70;;;;;;;25.24;36.13;99024.50;5086923;28;20130;-75
2022/06/01 11:25:08;;;;;;;3.72;1.88;;;;;;;24.45;36.08;98913.97;5086700;28;20082;-72
2022/06/01 11:27:45;;;;;;;7.70;2.22;;;;;;;24.94;37.03;99034.44;5087115;28;20052;-71
2022/06/01 11:30:18;;;;;;;3.20;1.77;;;;;;;24.93;36.93;99018.38;5087015;28;20086;-71
2022/06/01 11:32:56;;;;;;;2.70;1.42;;;;;;;23.64;33.91;98799.94;5086542;28;20056;-72
2022/06/01 11:35:31;;;;;;;3.22;1.83;;;;;;;24.84;35.49;99022.19;5086456;28;20114;-72
2022/06/01 11:38:05;;;;;;;2.70;1.80;;;;;;;24.87;35.96;99013.69;5086418;28;20113;-72
2022/06/01 11:40:37;;;;;;;;;;;;;;;24.76;34.51;99025.81;5087041;28;20235;-71
2022/06/01 11:43:11;;;;;;;2.58;1.83;;;;;;;24.79;35.81;99020.03;5086431;28;19924;-72
2022/06/01 11:45:43;;;;;;;3.67;1.70;;;;;;;24.74;33.11;99021.59;5086459;28;20048;-72
2022/06/01 11:48:15;;;;;;;3.38;1.80;;;;;;;24.58;33.77;99009.00;5086413;28;20297;-72
2022/06/01 11:50:55;;;;;;;3.80;1.52;;;;;;;24.63;33.97;99001.19;5086256;28;20056;-71
2022/06/01 11:53:29;;;;;;;2.70;1.58;;;;;;;24.74;35.87;98997.22;5085900;28;20111;-73
2022/06/01 11:56:10;;;;;;;3.25;1.70;;;;;;;24.86;32.96;98977.63;5085895;28;20053;-72
2022/06/01 11:58:45;;;;;;;4.00;2.00;;;;;;;25.10;31.85;98998.22;5086122;28;20362;-71
2022/06/01 12:01:15;;;;;;;2.15;1.42;;;;;;;24.48;33.46;98919.88;5085387;28;20067;-71
2022/06/01 12:04:11;;;;;;;3.25;1.60;;;;;;;24.96;30.98;98988.19;5085848;28;20056;-71
2022/06/01 12:06:46;;;;;;;2.83;1.73;;;;;;;24.99;32.40;98976.13;5085526;28;20274;-71
2022/06/01 12:09:22;;;;;;;2.80;1.75;;;;;;;25.02;31.88;98973.09;5085759;28;20366;-71
2022/06/01 12:11:50;;;;;;;3.22;1.52;;;;;;;25.07;33.34;98971.50;5085839;28;20105;-71
2022/06/01 12:14:31;;;;;;;4.57;2.13;;;;;;;25.09;30.48;98972.16;5085564;28;20090;-72
2022/06/01 12:17:31;;;;;;;3.83;1.52;;;;;;;25.11;29.20;98966.53;5085721;28;20064;-72
2022/06/01 12:20:35;;;;;;;6.32;2.08;;;;;;;25.35;28.81;98962.72;5085191;28;20057;-72
2022/06/01 12:29:39;;;;;;;5.03;2.58;;;;;;;25.67;28.73;98947.88;5085427;28;20331;-72